sensor_id;sensor_type;location;lat;lon;timestamp;P1;durP1;ratioP1;P2;durP2;ratioP2
30301;SDS011;17111;52.130;5.028;2023-07-30T00:01:37;12.68;;;6.88;;
30301;SDS011;17111;52.130;5.028;2023-07-30T00:04:04;17.13;;;7.63;;
30301;SDS011;17111;52.130;5.028;2023-07-30T00:06:30;14.02;;;7.50;;
30301;SDS011;17111;52.130;5.028;2023-07-30T00:08:57;12.38;;;6.63;;
30301;SDS011;17111;52.130;5.028;2023-07-30T00:11:24;13.77;;;7.47;;
30301;SDS011;17111;52.130;5.028;2023-07-30T00:13:50;13.32;;;6.57;;
30301;SDS011;17111;52.130;5.028;2023-07-30T00:16:17;11.32;;;6.22;;
30301;SDS011;17111;52.130;5.028;2023-07-30T00:18:44;14.82;;;6.63;;
30301;SDS011;17111;52.130;5.028;2023-07-30T00:21:10;12.60;;;5.85;;
30301;SDS011;17111;52.130;5.028;2023-07-30T00:23:37;13.85;;;5.70;;
30301;SDS011;17111;52.130;5.028;2023-07-30T00:26:03;11.80;;;5.95;;
30301;SDS011;17111;52.130;5.028;2023-07-30T00:28:30;10.77;;;5.85;;
30301;SDS011;17111;52.130;5.028;2023-07-30T00:30:57;11.13;;;6.18;;
30301;SDS011;17111;52.130;5.028;2023-07-30T00:33:23;11.43;;;5.90;;
30301;SDS011;17111;52.130;5.028;2023-07-30T00:35:51;9.80;;;5.63;;
30301;SDS011;17111;52.130;5.028;2023-07-30T00:38:18;13.40;;;5.07;;
30301;SDS011;17111;52.130;5.028;2023-07-30T00:40:45;10.73;;;5.20;;
30301;SDS011;17111;52.130;5.028;2023-07-30T00:43:12;11.88;;;5.38;;
30301;SDS011;17111;52.130;5.028;2023-07-30T00:45:40;9.32;;;5.18;;
30301;SDS011;17111;52.130;5.028;2023-07-30T00:48:09;10.27;;;4.45;;
30301;SDS011;17111;52.130;5.028;2023-07-30T00:50:36;11.00;;;5.40;;
30301;SDS011;17111;52.130;5.028;2023-07-30T00:53:04;10.18;;;4.75;;
30301;SDS011;17111;52.130;5.028;2023-07-30T00:55:33;11.65;;;4.13;;
30301;SDS011;17111;52.130;5.028;2023-07-30T00:58:01;10.27;;;4.80;;
30301;SDS011;17111;52.130;5.028;2023-07-30T01:00:28;8.30;;;4.68;;
30301;SDS011;17111;52.130;5.028;2023-07-30T01:02:56;10.57;;;4.53;;
30301;SDS011;17111;52.130;5.028;2023-07-30T01:05:22;9.82;;;4.40;;
30301;SDS011;17111;52.130;5.028;2023-07-30T01:07:49;7.22;;;3.80;;
30301;SDS011;17111;52.130;5.028;2023-07-30T01:10:15;8.93;;;3.60;;
30301;SDS011;17111;52.130;5.028;2023-07-30T01:12:42;7.25;;;3.58;;
30301;SDS011;17111;52.130;5.028;2023-07-30T01:15:11;8.05;;;4.28;;
30301;SDS011;17111;52.130;5.028;2023-07-30T01:17:38;9.20;;;3.80;;
30301;SDS011;17111;52.130;5.028;2023-07-30T01:20:05;7.45;;;3.85;;
30301;SDS011;17111;52.130;5.028;2023-07-30T01:22:33;7.93;;;3.70;;
30301;SDS011;17111;52.130;5.028;2023-07-30T01:24:59;7.53;;;3.42;;
30301;SDS011;17111;52.130;5.028;2023-07-30T01:27:28;8.05;;;3.65;;
30301;SDS011;17111;52.130;5.028;2023-07-30T01:30:17;7.63;;;3.38;;
30301;SDS011;17111;52.130;5.028;2023-07-30T01:32:49;7.15;;;3.55;;
30301;SDS011;17111;52.130;5.028;2023-07-30T01:35:20;9.10;;;3.83;;
30301;SDS011;17111;52.130;5.028;2023-07-30T01:37:50;7.22;;;3.58;;
30301;SDS011;17111;52.130;5.028;2023-07-30T01:40:17;6.65;;;3.22;;
30301;SDS011;17111;52.130;5.028;2023-07-30T01:42:45;7.65;;;3.70;;
30301;SDS011;17111;52.130;5.028;2023-07-30T01:45:11;9.38;;;3.22;;
30301;SDS011;17111;52.130;5.028;2023-07-30T01:47:38;5.75;;;2.63;;
30301;SDS011;17111;52.130;5.028;2023-07-30T01:50:05;8.52;;;3.28;;
30301;SDS011;17111;52.130;5.028;2023-07-30T01:52:31;7.20;;;3.05;;
30301;SDS011;17111;52.130;5.028;2023-07-30T01:54:58;6.30;;;2.72;;
30301;SDS011;17111;52.130;5.028;2023-07-30T01:57:27;8.88;;;3.05;;
30301;SDS011;17111;52.130;5.028;2023-07-30T01:59:53;7.85;;;3.05;;
30301;SDS011;17111;52.130;5.028;2023-07-30T02:02:20;7.45;;;2.80;;
30301;SDS011;17111;52.130;5.028;2023-07-30T02:04:47;7.97;;;3.08;;
30301;SDS011;17111;52.130;5.028;2023-07-30T02:07:13;5.50;;;2.72;;
30301;SDS011;17111;52.130;5.028;2023-07-30T02:09:40;7.32;;;3.20;;
30301;SDS011;17111;52.130;5.028;2023-07-30T02:12:07;7.72;;;3.05;;
30301;SDS011;17111;52.130;5.028;2023-07-30T02:14:33;7.13;;;2.75;;
30301;SDS011;17111;52.130;5.028;2023-07-30T02:17:00;6.82;;;2.60;;
30301;SDS011;17111;52.130;5.028;2023-07-30T02:19:27;7.53;;;2.88;;
30301;SDS011;17111;52.130;5.028;2023-07-30T02:21:53;7.45;;;2.67;;
30301;SDS011;17111;52.130;5.028;2023-07-30T02:24:20;7.35;;;2.80;;
30301;SDS011;17111;52.130;5.028;2023-07-30T02:26:46;5.47;;;2.55;;
30301;SDS011;17111;52.130;5.028;2023-07-30T02:29:14;9.35;;;2.70;;
30301;SDS011;17111;52.130;5.028;2023-07-30T02:31:41;8.05;;;2.72;;
30301;SDS011;17111;52.130;5.028;2023-07-30T02:34:08;6.10;;;2.65;;
30301;SDS011;17111;52.130;5.028;2023-07-30T02:36:35;5.65;;;2.38;;
30301;SDS011;17111;52.130;5.028;2023-07-30T02:39:02;6.88;;;2.22;;
30301;SDS011;17111;52.130;5.028;2023-07-30T02:41:28;5.32;;;2.42;;
30301;SDS011;17111;52.130;5.028;2023-07-30T02:43:55;7.25;;;2.10;;
30301;SDS011;17111;52.130;5.028;2023-07-30T02:46:22;7.35;;;2.85;;
30301;SDS011;17111;52.130;5.028;2023-07-30T02:48:48;5.60;;;2.22;;
30301;SDS011;17111;52.130;5.028;2023-07-30T02:51:15;6.95;;;2.67;;
30301;SDS011;17111;52.130;5.028;2023-07-30T02:53:44;8.88;;;2.92;;
30301;SDS011;17111;52.130;5.028;2023-07-30T02:56:11;5.18;;;2.30;;
30301;SDS011;17111;52.130;5.028;2023-07-30T02:58:37;5.07;;;2.15;;
30301;SDS011;17111;52.130;5.028;2023-07-30T03:01:07;6.25;;;2.10;;
30301;SDS011;17111;52.130;5.028;2023-07-30T03:03:34;10.02;;;2.47;;
30301;SDS011;17111;52.130;5.028;2023-07-30T03:06:01;7.00;;;2.30;;
30301;SDS011;17111;52.130;5.028;2023-07-30T03:08:28;6.82;;;2.17;;
30301;SDS011;17111;52.130;5.028;2023-07-30T03:10:57;7.47;;;2.55;;
30301;SDS011;17111;52.130;5.028;2023-07-30T03:13:24;10.23;;;2.20;;
30301;SDS011;17111;52.130;5.028;2023-07-30T03:15:51;4.25;;;1.88;;
30301;SDS011;17111;52.130;5.028;2023-07-30T03:18:17;5.57;;;2.20;;
30301;SDS011;17111;52.130;5.028;2023-07-30T03:20:44;6.00;;;2.33;;
30301;SDS011;17111;52.130;5.028;2023-07-30T03:23:10;7.35;;;2.42;;
30301;SDS011;17111;52.130;5.028;2023-07-30T03:25:37;7.63;;;2.20;;
30301;SDS011;17111;52.130;5.028;2023-07-30T03:28:03;8.10;;;2.40;;
30301;SDS011;17111;52.130;5.028;2023-07-30T03:30:30;8.13;;;2.47;;
30301;SDS011;17111;52.130;5.028;2023-07-30T03:32:57;7.55;;;2.10;;
30301;SDS011;17111;52.130;5.028;2023-07-30T03:35:23;6.45;;;2.00;;
30301;SDS011;17111;52.130;5.028;2023-07-30T03:37:51;5.40;;;2.28;;
30301;SDS011;17111;52.130;5.028;2023-07-30T03:40:17;6.68;;;2.20;;
30301;SDS011;17111;52.130;5.028;2023-07-30T03:42:44;8.32;;;2.10;;
30301;SDS011;17111;52.130;5.028;2023-07-30T03:45:10;9.38;;;2.30;;
30301;SDS011;17111;52.130;5.028;2023-07-30T03:47:37;6.78;;;2.35;;
30301;SDS011;17111;52.130;5.028;2023-07-30T03:50:04;7.78;;;2.30;;
30301;SDS011;17111;52.130;5.028;2023-07-30T03:52:30;5.63;;;2.45;;
30301;SDS011;17111;52.130;5.028;2023-07-30T03:54:57;8.65;;;2.30;;
30301;SDS011;17111;52.130;5.028;2023-07-30T03:57:24;7.32;;;2.42;;
30301;SDS011;17111;52.130;5.028;2023-07-30T03:59:50;6.70;;;2.00;;
30301;SDS011;17111;52.130;5.028;2023-07-30T04:02:17;7.35;;;2.60;;
30301;SDS011;17111;52.130;5.028;2023-07-30T04:04:43;9.40;;;2.67;;
30301;SDS011;17111;52.130;5.028;2023-07-30T04:07:12;8.52;;;2.30;;
30301;SDS011;17111;52.130;5.028;2023-07-30T04:09:38;7.80;;;2.38;;
30301;SDS011;17111;52.130;5.028;2023-07-30T04:12:05;10.13;;;2.22;;
30301;SDS011;17111;52.130;5.028;2023-07-30T04:14:32;7.72;;;2.30;;
30301;SDS011;17111;52.130;5.028;2023-07-30T04:16:58;7.05;;;2.03;;
30301;SDS011;17111;52.130;5.028;2023-07-30T04:19:25;6.97;;;2.13;;
30301;SDS011;17111;52.130;5.028;2023-07-30T04:21:52;7.18;;;2.00;;
30301;SDS011;17111;52.130;5.028;2023-07-30T04:24:19;8.30;;;2.25;;
30301;SDS011;17111;52.130;5.028;2023-07-30T04:26:46;10.45;;;2.67;;
30301;SDS011;17111;52.130;5.028;2023-07-30T04:29:12;9.05;;;2.47;;
30301;SDS011;17111;52.130;5.028;2023-07-30T04:31:40;6.05;;;1.95;;
30301;SDS011;17111;52.130;5.028;2023-07-30T04:34:06;10.35;;;2.67;;
30301;SDS011;17111;52.130;5.028;2023-07-30T04:36:33;8.48;;;2.40;;
30301;SDS011;17111;52.130;5.028;2023-07-30T04:39:00;9.25;;;2.67;;
30301;SDS011;17111;52.130;5.028;2023-07-30T04:41:26;10.35;;;2.53;;
30301;SDS011;17111;52.130;5.028;2023-07-30T04:43:53;9.73;;;2.22;;
30301;SDS011;17111;52.130;5.028;2023-07-30T04:46:19;6.45;;;2.05;;
30301;SDS011;17111;52.130;5.028;2023-07-30T04:48:46;6.40;;;2.13;;
30301;SDS011;17111;52.130;5.028;2023-07-30T04:51:13;6.60;;;2.78;;
30301;SDS011;17111;52.130;5.028;2023-07-30T04:53:39;7.38;;;2.33;;
30301;SDS011;17111;52.130;5.028;2023-07-30T04:56:06;6.75;;;2.33;;
30301;SDS011;17111;52.130;5.028;2023-07-30T04:58:32;7.60;;;1.90;;
30301;SDS011;17111;52.130;5.028;2023-07-30T05:00:59;6.57;;;2.03;;
30301;SDS011;17111;52.130;5.028;2023-07-30T05:03:26;10.00;;;2.30;;
30301;SDS011;17111;52.130;5.028;2023-07-30T05:05:53;5.95;;;2.45;;
30301;SDS011;17111;52.130;5.028;2023-07-30T05:08:19;6.78;;;2.40;;
30301;SDS011;17111;52.130;5.028;2023-07-30T05:10:46;7.00;;;2.17;;
30301;SDS011;17111;52.130;5.028;2023-07-30T05:13:12;7.70;;;2.38;;
30301;SDS011;17111;52.130;5.028;2023-07-30T05:15:39;5.72;;;1.90;;
30301;SDS011;17111;52.130;5.028;2023-07-30T05:18:06;8.00;;;2.22;;
30301;SDS011;17111;52.130;5.028;2023-07-30T05:20:32;9.23;;;2.42;;
30301;SDS011;17111;52.130;5.028;2023-07-30T05:22:59;6.68;;;1.92;;
30301;SDS011;17111;52.130;5.028;2023-07-30T05:25:25;8.68;;;2.25;;
30301;SDS011;17111;52.130;5.028;2023-07-30T05:27:52;9.05;;;1.98;;
30301;SDS011;17111;52.130;5.028;2023-07-30T05:30:19;6.25;;;2.00;;
30301;SDS011;17111;52.130;5.028;2023-07-30T05:32:45;7.82;;;2.55;;
30301;SDS011;17111;52.130;5.028;2023-07-30T05:35:12;7.80;;;2.47;;
30301;SDS011;17111;52.130;5.028;2023-07-30T05:37:39;6.88;;;2.60;;
30301;SDS011;17111;52.130;5.028;2023-07-30T05:40:06;6.88;;;2.33;;
30301;SDS011;17111;52.130;5.028;2023-07-30T05:42:33;7.63;;;2.17;;
30301;SDS011;17111;52.130;5.028;2023-07-30T05:44:59;6.55;;;1.92;;
30301;SDS011;17111;52.130;5.028;2023-07-30T05:47:26;8.75;;;2.03;;
30301;SDS011;17111;52.130;5.028;2023-07-30T05:49:53;7.10;;;2.75;;
30301;SDS011;17111;52.130;5.028;2023-07-30T05:52:19;11.15;;;2.40;;
30301;SDS011;17111;52.130;5.028;2023-07-30T05:54:46;10.57;;;2.50;;
30301;SDS011;17111;52.130;5.028;2023-07-30T05:57:12;9.07;;;2.08;;
30301;SDS011;17111;52.130;5.028;2023-07-30T05:59:39;11.77;;;2.78;;
30301;SDS011;17111;52.130;5.028;2023-07-30T06:02:05;7.40;;;2.67;;
30301;SDS011;17111;52.130;5.028;2023-07-30T06:04:33;10.20;;;2.45;;
30301;SDS011;17111;52.130;5.028;2023-07-30T06:06:59;8.55;;;2.55;;
30301;SDS011;17111;52.130;5.028;2023-07-30T06:09:29;8.45;;;2.33;;
30301;SDS011;17111;52.130;5.028;2023-07-30T06:11:56;4.75;;;2.13;;
30301;SDS011;17111;52.130;5.028;2023-07-30T06:14:24;9.10;;;2.28;;
30301;SDS011;17111;52.130;5.028;2023-07-30T06:16:52;7.95;;;2.05;;
30301;SDS011;17111;52.130;5.028;2023-07-30T06:19:19;10.73;;;2.42;;
30301;SDS011;17111;52.130;5.028;2023-07-30T06:21:46;9.65;;;2.58;;
30301;SDS011;17111;52.130;5.028;2023-07-30T06:24:13;11.82;;;3.25;;
30301;SDS011;17111;52.130;5.028;2023-07-30T06:26:39;11.68;;;3.63;;
30301;SDS011;17111;52.130;5.028;2023-07-30T06:29:06;13.10;;;3.58;;
30301;SDS011;17111;52.130;5.028;2023-07-30T06:31:32;11.35;;;3.20;;
30301;SDS011;17111;52.130;5.028;2023-07-30T06:33:59;15.88;;;4.55;;
30301;SDS011;17111;52.130;5.028;2023-07-30T06:36:26;9.98;;;3.75;;
30301;SDS011;17111;52.130;5.028;2023-07-30T06:38:52;17.30;;;4.18;;
30301;SDS011;17111;52.130;5.028;2023-07-30T06:41:19;16.00;;;3.88;;
30301;SDS011;17111;52.130;5.028;2023-07-30T06:43:45;10.80;;;3.35;;
30301;SDS011;17111;52.130;5.028;2023-07-30T06:46:12;15.07;;;3.35;;
30301;SDS011;17111;52.130;5.028;2023-07-30T06:48:41;13.45;;;4.10;;
30301;SDS011;17111;52.130;5.028;2023-07-30T06:51:09;15.27;;;3.65;;
30301;SDS011;17111;52.130;5.028;2023-07-30T06:53:36;17.00;;;4.30;;
30301;SDS011;17111;52.130;5.028;2023-07-30T06:56:02;18.20;;;5.18;;
30301;SDS011;17111;52.130;5.028;2023-07-30T06:58:29;20.15;;;6.10;;
30301;SDS011;17111;52.130;5.028;2023-07-30T07:00:56;13.18;;;5.40;;
30301;SDS011;17111;52.130;5.028;2023-07-30T07:03:23;21.73;;;6.70;;
30301;SDS011;17111;52.130;5.028;2023-07-30T07:05:56;19.90;;;5.75;;
30301;SDS011;17111;52.130;5.028;2023-07-30T07:08:22;21.27;;;6.35;;
30301;SDS011;17111;52.130;5.028;2023-07-30T07:10:49;18.58;;;6.03;;
30301;SDS011;17111;52.130;5.028;2023-07-30T07:13:16;16.48;;;5.20;;
30301;SDS011;17111;52.130;5.028;2023-07-30T07:15:43;15.88;;;5.40;;
30301;SDS011;17111;52.130;5.028;2023-07-30T07:18:10;17.98;;;4.65;;
30301;SDS011;17111;52.130;5.028;2023-07-30T07:20:37;17.38;;;4.97;;
30301;SDS011;17111;52.130;5.028;2023-07-30T07:23:04;17.25;;;4.78;;
30301;SDS011;17111;52.130;5.028;2023-07-30T07:25:31;15.57;;;4.40;;
30301;SDS011;17111;52.130;5.028;2023-07-30T07:27:57;19.48;;;5.05;;
30301;SDS011;17111;52.130;5.028;2023-07-30T07:30:24;19.55;;;5.35;;
30301;SDS011;17111;52.130;5.028;2023-07-30T07:32:52;19.27;;;7.03;;
30301;SDS011;17111;52.130;5.028;2023-07-30T07:35:19;26.73;;;6.43;;
30301;SDS011;17111;52.130;5.028;2023-07-30T07:37:49;23.15;;;5.57;;
30301;SDS011;17111;52.130;5.028;2023-07-30T07:40:16;23.10;;;7.30;;
30301;SDS011;17111;52.130;5.028;2023-07-30T07:42:42;22.05;;;6.30;;
30301;SDS011;17111;52.130;5.028;2023-07-30T07:45:09;20.60;;;5.90;;
30301;SDS011;17111;52.130;5.028;2023-07-30T07:47:36;19.58;;;6.35;;
30301;SDS011;17111;52.130;5.028;2023-07-30T07:50:02;18.55;;;5.35;;
30301;SDS011;17111;52.130;5.028;2023-07-30T07:52:29;19.95;;;6.18;;
30301;SDS011;17111;52.130;5.028;2023-07-30T07:54:56;16.55;;;5.35;;
30301;SDS011;17111;52.130;5.028;2023-07-30T07:57:22;20.00;;;6.03;;
30301;SDS011;17111;52.130;5.028;2023-07-30T07:59:49;17.60;;;6.13;;
30301;SDS011;17111;52.130;5.028;2023-07-30T08:02:16;16.00;;;5.53;;
30301;SDS011;17111;52.130;5.028;2023-07-30T08:04:42;19.50;;;6.60;;
30301;SDS011;17111;52.130;5.028;2023-07-30T08:07:09;18.38;;;6.32;;
30301;SDS011;17111;52.130;5.028;2023-07-30T08:09:35;18.48;;;5.55;;
30301;SDS011;17111;52.130;5.028;2023-07-30T08:12:02;15.95;;;5.00;;
30301;SDS011;17111;52.130;5.028;2023-07-30T08:14:29;15.02;;;4.90;;
30301;SDS011;17111;52.130;5.028;2023-07-30T08:16:57;16.27;;;5.05;;
30301;SDS011;17111;52.130;5.028;2023-07-30T08:19:24;16.77;;;4.75;;
30301;SDS011;17111;52.130;5.028;2023-07-30T08:21:50;16.67;;;6.05;;
30301;SDS011;17111;52.130;5.028;2023-07-30T08:24:17;17.40;;;5.68;;
30301;SDS011;17111;52.130;5.028;2023-07-30T08:26:43;15.73;;;4.90;;
30301;SDS011;17111;52.130;5.028;2023-07-30T08:29:10;18.42;;;5.47;;
30301;SDS011;17111;52.130;5.028;2023-07-30T08:31:40;17.58;;;4.90;;
30301;SDS011;17111;52.130;5.028;2023-07-30T08:34:07;15.02;;;4.97;;
30301;SDS011;17111;52.130;5.028;2023-07-30T08:36:34;11.35;;;4.30;;
30301;SDS011;17111;52.130;5.028;2023-07-30T08:39:01;15.80;;;4.85;;
30301;SDS011;17111;52.130;5.028;2023-07-30T08:41:30;14.20;;;4.25;;
30301;SDS011;17111;52.130;5.028;2023-07-30T08:43:57;16.35;;;4.25;;
30301;SDS011;17111;52.130;5.028;2023-07-30T08:46:24;11.02;;;4.07;;
30301;SDS011;17111;52.130;5.028;2023-07-30T08:48:50;12.98;;;4.22;;
30301;SDS011;17111;52.130;5.028;2023-07-30T08:51:17;11.93;;;3.75;;
30301;SDS011;17111;52.130;5.028;2023-07-30T08:53:45;11.23;;;3.33;;
30301;SDS011;17111;52.130;5.028;2023-07-30T08:56:12;12.85;;;3.83;;
30301;SDS011;17111;52.130;5.028;2023-07-30T08:58:39;10.57;;;3.25;;
30301;SDS011;17111;52.130;5.028;2023-07-30T09:01:11;16.63;;;4.25;;
30301;SDS011;17111;52.130;5.028;2023-07-30T09:03:39;14.45;;;5.55;;
30301;SDS011;17111;52.130;5.028;2023-07-30T09:06:06;15.57;;;6.32;;
30301;SDS011;17111;52.130;5.028;2023-07-30T09:08:33;12.35;;;5.63;;
30301;SDS011;17111;52.130;5.028;2023-07-30T09:11:10;17.50;;;6.35;;
30301;SDS011;17111;52.130;5.028;2023-07-30T09:13:38;14.82;;;5.57;;
30301;SDS011;17111;52.130;5.028;2023-07-30T09:16:09;28.92;;;7.82;;
30301;SDS011;17111;52.130;5.028;2023-07-30T09:18:40;20.02;;;8.63;;
30301;SDS011;17111;52.130;5.028;2023-07-30T09:21:09;19.95;;;8.32;;
30301;SDS011;17111;52.130;5.028;2023-07-30T09:23:44;17.30;;;8.48;;
30301;SDS011;17111;52.130;5.028;2023-07-30T09:26:13;15.43;;;7.30;;
30301;SDS011;17111;52.130;5.028;2023-07-30T09:28:40;22.63;;;8.27;;
30301;SDS011;17111;52.130;5.028;2023-07-30T09:31:07;15.82;;;6.88;;
30301;SDS011;17111;52.130;5.028;2023-07-30T09:33:47;14.77;;;6.63;;
30301;SDS011;17111;52.130;5.028;2023-07-30T09:36:13;13.30;;;6.65;;
30301;SDS011;17111;52.130;5.028;2023-07-30T09:38:44;16.13;;;7.93;;
30301;SDS011;17111;52.130;5.028;2023-07-30T09:41:12;16.20;;;7.97;;
30301;SDS011;17111;52.130;5.028;2023-07-30T09:43:41;16.77;;;8.70;;
30301;SDS011;17111;52.130;5.028;2023-07-30T09:46:07;15.90;;;6.93;;
30301;SDS011;17111;52.130;5.028;2023-07-30T09:48:34;13.75;;;7.20;;
30301;SDS011;17111;52.130;5.028;2023-07-30T09:51:02;14.25;;;6.95;;
30301;SDS011;17111;52.130;5.028;2023-07-30T09:53:30;14.23;;;7.40;;
30301;SDS011;17111;52.130;5.028;2023-07-30T09:56:01;22.20;;;8.07;;
30301;SDS011;17111;52.130;5.028;2023-07-30T09:58:29;15.68;;;6.78;;
30301;SDS011;17111;52.130;5.028;2023-07-30T10:00:59;16.65;;;6.68;;
30301;SDS011;17111;52.130;5.028;2023-07-30T10:03:27;17.02;;;6.35;;
30301;SDS011;17111;52.130;5.028;2023-07-30T10:05:59;15.18;;;6.53;;
30301;SDS011;17111;52.130;5.028;2023-07-30T10:08:30;13.55;;;6.30;;
30301;SDS011;17111;52.130;5.028;2023-07-30T10:11:00;10.95;;;5.65;;
30301;SDS011;17111;52.130;5.028;2023-07-30T10:13:33;15.82;;;6.35;;
30301;SDS011;17111;52.130;5.028;2023-07-30T10:16:02;12.65;;;5.28;;
30301;SDS011;17111;52.130;5.028;2023-07-30T10:18:41;11.55;;;4.55;;
30301;SDS011;17111;52.130;5.028;2023-07-30T10:21:09;10.15;;;5.60;;
30301;SDS011;17111;52.130;5.028;2023-07-30T10:23:46;11.57;;;5.57;;
30301;SDS011;17111;52.130;5.028;2023-07-30T10:26:30;12.98;;;5.68;;
30301;SDS011;17111;52.130;5.028;2023-07-30T10:31:40;14.65;;;6.45;;
30301;SDS011;17111;52.130;5.028;2023-07-30T10:34:09;12.52;;;6.28;;
30301;SDS011;17111;52.130;5.028;2023-07-30T10:39:26;12.27;;;5.35;;
30301;SDS011;17111;52.130;5.028;2023-07-30T10:44:25;10.40;;;4.47;;
30301;SDS011;17111;52.130;5.028;2023-07-30T10:46:54;14.80;;;5.05;;
30301;SDS011;17111;52.130;5.028;2023-07-30T10:49:22;12.02;;;4.57;;
30301;SDS011;17111;52.130;5.028;2023-07-30T10:51:51;10.88;;;4.20;;
30301;SDS011;17111;52.130;5.028;2023-07-30T10:54:19;11.38;;;3.40;;
30301;SDS011;17111;52.130;5.028;2023-07-30T10:56:46;7.80;;;3.60;;
30301;SDS011;17111;52.130;5.028;2023-07-30T10:59:13;13.23;;;3.03;;
30301;SDS011;17111;52.130;5.028;2023-07-30T11:01:41;10.55;;;3.40;;
30301;SDS011;17111;52.130;5.028;2023-07-30T11:04:10;7.95;;;2.80;;
30301;SDS011;17111;52.130;5.028;2023-07-30T11:06:50;7.03;;;2.58;;
30301;SDS011;17111;52.130;5.028;2023-07-30T11:09:21;11.77;;;2.83;;
30301;SDS011;17111;52.130;5.028;2023-07-30T11:11:54;9.85;;;2.80;;
30301;SDS011;17111;52.130;5.028;2023-07-30T11:14:22;6.97;;;2.30;;
30301;SDS011;17111;52.130;5.028;2023-07-30T11:16:56;6.05;;;2.35;;
30301;SDS011;17111;52.130;5.028;2023-07-30T11:19:25;10.10;;;2.50;;
30301;SDS011;17111;52.130;5.028;2023-07-30T11:21:53;8.18;;;2.13;;
30301;SDS011;17111;52.130;5.028;2023-07-30T11:24:21;5.28;;;1.90;;
30301;SDS011;17111;52.130;5.028;2023-07-30T11:26:57;8.35;;;1.90;;
30301;SDS011;17111;52.130;5.028;2023-07-30T11:29:25;8.65;;;2.42;;
30301;SDS011;17111;52.130;5.028;2023-07-30T11:31:51;6.65;;;2.10;;
30301;SDS011;17111;52.130;5.028;2023-07-30T11:34:22;6.47;;;2.15;;
30301;SDS011;17111;52.130;5.028;2023-07-30T11:36:49;5.78;;;1.98;;
30301;SDS011;17111;52.130;5.028;2023-07-30T11:39:16;5.30;;;2.00;;
30301;SDS011;17111;52.130;5.028;2023-07-30T11:41:43;7.93;;;2.33;;
30301;SDS011;17111;52.130;5.028;2023-07-30T11:44:19;7.20;;;1.85;;
30301;SDS011;17111;52.130;5.028;2023-07-30T11:46:56;5.15;;;2.10;;
30301;SDS011;17111;52.130;5.028;2023-07-30T11:49:23;7.63;;;2.28;;
30301;SDS011;17111;52.130;5.028;2023-07-30T11:51:49;7.75;;;2.25;;
30301;SDS011;17111;52.130;5.028;2023-07-30T11:54:18;7.43;;;2.38;;
30301;SDS011;17111;52.130;5.028;2023-07-30T11:56:46;7.93;;;2.10;;
30301;SDS011;17111;52.130;5.028;2023-07-30T11:59:13;5.10;;;1.85;;
30301;SDS011;17111;52.130;5.028;2023-07-30T12:01:40;7.93;;;2.40;;
30301;SDS011;17111;52.130;5.028;2023-07-30T12:04:09;3.65;;;2.00;;
30301;SDS011;17111;52.130;5.028;2023-07-30T12:06:42;7.40;;;1.92;;
30301;SDS011;17111;52.130;5.028;2023-07-30T12:09:28;5.88;;;1.80;;
30301;SDS011;17111;52.130;5.028;2023-07-30T12:14:27;5.00;;;2.08;;
30301;SDS011;17111;52.130;5.028;2023-07-30T12:16:59;9.15;;;2.88;;
30301;SDS011;17111;52.130;5.028;2023-07-30T12:19:26;22.02;;;3.45;;
30301;SDS011;17111;52.130;5.028;2023-07-30T12:21:53;18.30;;;2.83;;
30301;SDS011;17111;52.130;5.028;2023-07-30T12:24:20;11.45;;;2.78;;
30301;SDS011;17111;52.130;5.028;2023-07-30T12:26:48;10.32;;;3.42;;
30301;SDS011;17111;52.130;5.028;2023-07-30T12:29:16;28.83;;;4.18;;
30301;SDS011;17111;52.130;5.028;2023-07-30T12:31:43;18.40;;;3.88;;
30301;SDS011;17111;52.130;5.028;2023-07-30T12:34:10;16.20;;;3.22;;
30301;SDS011;17111;52.130;5.028;2023-07-30T12:36:36;11.25;;;3.03;;
30301;SDS011;17111;52.130;5.028;2023-07-30T12:39:03;13.27;;;2.67;;
30301;SDS011;17111;52.130;5.028;2023-07-30T12:41:29;13.65;;;3.25;;
30301;SDS011;17111;52.130;5.028;2023-07-30T12:43:56;11.77;;;2.17;;
30301;SDS011;17111;52.130;5.028;2023-07-30T12:46:23;14.02;;;2.90;;
30301;SDS011;17111;52.130;5.028;2023-07-30T12:48:51;11.65;;;2.90;;
30301;SDS011;17111;52.130;5.028;2023-07-30T12:51:17;11.38;;;2.83;;
30301;SDS011;17111;52.130;5.028;2023-07-30T12:53:44;11.45;;;2.22;;
30301;SDS011;17111;52.130;5.028;2023-07-30T12:56:11;6.70;;;2.03;;
30301;SDS011;17111;52.130;5.028;2023-07-30T12:58:38;10.10;;;2.30;;
30301;SDS011;17111;52.130;5.028;2023-07-30T13:01:06;9.38;;;2.20;;
30301;SDS011;17111;52.130;5.028;2023-07-30T13:03:33;5.72;;;1.90;;
30301;SDS011;17111;52.130;5.028;2023-07-30T13:06:00;14.02;;;2.95;;
30301;SDS011;17111;52.130;5.028;2023-07-30T13:08:26;8.50;;;1.80;;
30301;SDS011;17111;52.130;5.028;2023-07-30T13:10:53;8.65;;;2.38;;
30301;SDS011;17111;52.130;5.028;2023-07-30T13:13:20;6.97;;;2.20;;
30301;SDS011;17111;52.130;5.028;2023-07-30T13:15:46;8.27;;;2.00;;
30301;SDS011;17111;52.130;5.028;2023-07-30T13:18:13;7.55;;;1.80;;
30301;SDS011;17111;52.130;5.028;2023-07-30T13:20:39;14.45;;;1.85;;
30301;SDS011;17111;52.130;5.028;2023-07-30T13:23:06;7.50;;;1.50;;
30301;SDS011;17111;52.130;5.028;2023-07-30T13:25:33;9.68;;;1.67;;
30301;SDS011;17111;52.130;5.028;2023-07-30T13:27:59;8.60;;;1.60;;
30301;SDS011;17111;52.130;5.028;2023-07-30T13:30:26;8.20;;;1.70;;
30301;SDS011;17111;52.130;5.028;2023-07-30T13:32:54;5.32;;;1.52;;
30301;SDS011;17111;52.130;5.028;2023-07-30T13:35:21;6.55;;;1.67;;
30301;SDS011;17111;52.130;5.028;2023-07-30T13:37:47;5.20;;;1.90;;
30301;SDS011;17111;52.130;5.028;2023-07-30T13:40:14;5.75;;;1.58;;
30301;SDS011;17111;52.130;5.028;2023-07-30T13:42:40;12.43;;;6.25;;
30301;SDS011;17111;52.130;5.028;2023-07-30T13:45:07;11.02;;;5.85;;
30301;SDS011;17111;52.130;5.028;2023-07-30T13:47:34;11.88;;;4.82;;
30301;SDS011;17111;52.130;5.028;2023-07-30T13:50:01;8.52;;;5.10;;
30301;SDS011;17111;52.130;5.028;2023-07-30T13:52:28;15.57;;;6.28;;
30301;SDS011;17111;52.130;5.028;2023-07-30T13:54:54;13.35;;;7.10;;
30301;SDS011;17111;52.130;5.028;2023-07-30T13:57:21;17.80;;;8.10;;
30301;SDS011;17111;52.130;5.028;2023-07-30T13:59:50;17.65;;;8.82;;
30301;SDS011;17111;52.130;5.028;2023-07-30T14:02:17;15.27;;;8.38;;
30301;SDS011;17111;52.130;5.028;2023-07-30T14:04:44;15.57;;;9.00;;
30301;SDS011;17111;52.130;5.028;2023-07-30T14:07:10;14.70;;;7.53;;
30301;SDS011;17111;52.130;5.028;2023-07-30T14:09:37;16.27;;;8.82;;
30301;SDS011;17111;52.130;5.028;2023-07-30T14:12:04;17.25;;;8.23;;
30301;SDS011;17111;52.130;5.028;2023-07-30T14:14:30;16.90;;;8.10;;
30301;SDS011;17111;52.130;5.028;2023-07-30T14:16:57;15.05;;;7.60;;
30301;SDS011;17111;52.130;5.028;2023-07-30T14:19:24;18.45;;;8.43;;
30301;SDS011;17111;52.130;5.028;2023-07-30T14:21:51;14.73;;;7.32;;
30301;SDS011;17111;52.130;5.028;2023-07-30T14:24:17;13.48;;;6.60;;
30301;SDS011;17111;52.130;5.028;2023-07-30T14:26:44;13.38;;;7.07;;
30301;SDS011;17111;52.130;5.028;2023-07-30T14:29:11;15.18;;;6.78;;
30301;SDS011;17111;52.130;5.028;2023-07-30T14:31:38;17.65;;;6.60;;
30301;SDS011;17111;52.130;5.028;2023-07-30T14:34:06;15.25;;;6.93;;
30301;SDS011;17111;52.130;5.028;2023-07-30T14:36:33;13.82;;;6.03;;
30301;SDS011;17111;52.130;5.028;2023-07-30T14:39:00;20.08;;;5.75;;
30301;SDS011;17111;52.130;5.028;2023-07-30T14:41:26;13.30;;;5.80;;
30301;SDS011;17111;52.130;5.028;2023-07-30T14:43:53;15.40;;;4.80;;
30301;SDS011;17111;52.130;5.028;2023-07-30T14:46:19;11.27;;;4.03;;
30301;SDS011;17111;52.130;5.028;2023-07-30T14:48:46;14.45;;;5.05;;
30301;SDS011;17111;52.130;5.028;2023-07-30T14:51:13;15.38;;;5.20;;
30301;SDS011;17111;52.130;5.028;2023-07-30T14:53:39;13.02;;;4.75;;